Time;durP1;ratioP1;P1;durP2;ratioP2;P2;SDS_P1;SDS_P2;PMS_P1;PMS_P2;Temp;Humidity;BMP_temperature;BMP_pressure;BME280_temperature;BME280_humidity;BME280_pressure;Samples;Min_cycle;Max_cycle;Signal;HPM_P1;HPM_P2
2022/06/02 00:01:22;;;;;;;10.57;9.88;;;18.50;49.10;;;;;;4988815;28;20030;-76
2022/06/02 00:03:59;;;;;;;10.95;10.23;;;18.40;49.50;;;;;;4972704;28;20045;-76
2022/06/02 00:06:28;;;;;;;10.60;9.90;;;18.30;49.30;;;;;;5006260;28;20030;-75
2022/06/02 00:09:03;;;;;;;11.02;10.18;;;18.30;49.20;;;;;;4986411;28;20054;-76
2022/06/02 00:11:35;;;;;;;10.77;10.02;;;18.30;49.30;;;;;;4986182;28;20050;-76
2022/06/02 00:14:30;;;;;;;11.68;10.98;;;18.30;49.50;;;;;;4986968;28;20034;-76
2022/06/02 00:17:28;;;;;;;10.50;9.90;;;18.20;49.50;;;;;;5023077;28;20030;-76
2022/06/02 00:19:59;;;;;;;10.27;9.57;;;18.10;49.80;;;;;;5024180;28;20472;-76
2022/06/02 00:22:53;;;;;;;11.13;10.52;;;18.10;49.80;;;;;;5026934;28;20041;-76
2022/06/02 00:25:36;;;;;;;10.93;10.13;;;18.00;49.70;;;;;;5012476;28;20028;-76
2022/06/02 00:28:33;;;;;;;9.95;9.35;;;18.00;49.80;;;;;;5029023;28;20503;-76
2022/06/02 00:31:12;;;;;;;10.90;10.00;;;18.00;50.10;;;;;;5029853;28;20041;-76
2022/06/02 00:33:49;;;;;;;10.60;9.85;;;18.00;50.10;;;;;;5029354;28;20408;-75
2022/06/02 00:36:17;;;;;;;10.55;9.95;;;17.90;50.30;;;;;;5013328;28;20044;-76
2022/06/02 00:38:43;;;;;;;10.30;9.80;;;18.00;50.30;;;;;;5010150;28;20033;-76
2022/06/02 00:41:23;;;;;;;10.38;9.68;;;18.00;50.00;;;;;;5026587;28;20025;-76
2022/06/02 00:43:55;;;;;;;10.55;9.95;;;18.00;50.30;;;;;;5029303;28;20029;-76
2022/06/02 00:46:25;;;;;;;10.40;9.77;;;18.10;50.40;;;;;;5012041;28;20033;-76
2022/06/02 00:48:57;;;;;;;10.88;10.18;;;18.20;50.00;;;;;;5029306;28;20041;-76
2022/06/02 00:51:41;;;;;;;;;;;18.20;49.80;;;;;;5029463;28;20261;-75
2022/06/02 00:57:31;;;;;;;10.32;9.65;;;18.10;50.20;;;;;;5027305;28;20267;-76
2022/06/02 00:59:59;;;;;;;10.63;9.93;;;18.00;50.50;;;;;;5029180;28;20384;-76
2022/06/02 01:02:25;;;;;;;11.07;10.32;;;18.00;50.60;;;;;;5026750;28;20038;-76
2022/06/02 01:04:52;;;;;;;10.73;10.13;;;18.10;50.60;;;;;;5005927;28;20038;-76
2022/06/02 01:07:29;;;;;;;11.05;10.20;;;18.10;50.70;;;;;;5026664;28;20376;-76
2022/06/02 01:10:27;;;;;;;10.75;10.02;;;18.20;51.00;;;;;;5025380;28;20049;-76
2022/06/02 01:13:09;;;;;;;10.55;9.80;;;18.10;52.50;;;;;;5025688;28;20037;-76
2022/06/02 01:15:35;;;;;;;;;;;18.00;52.90;;;;;;5029857;28;20029;-76
2022/06/02 01:18:22;;;;;;;10.73;10.13;;;18.00;53.30;;;;;;5031358;28;19915;-76
2022/06/02 01:21:13;;;;;;;9.90;9.30;;;17.70;53.50;;;;;;5027004;28;20033;-76
2022/06/02 01:24:18;;;;;;;10.80;10.18;;;17.60;54.10;;;;;;5025806;28;20046;-76
2022/06/02 01:27:05;;;;;;;9.82;9.23;;;17.50;54.00;;;;;;5019442;28;20045;-76
2022/06/02 01:29:52;;;;;;;10.43;9.50;;;17.40;54.00;;;;;;5034168;28;20109;-75
2022/06/02 01:32:20;;;;;;;10.07;9.27;;;17.30;54.10;;;;;;5028011;28;20074;-76
2022/06/02 01:35:11;;;;;;;9.90;9.30;;;17.30;54.10;;;;;;5028520;28;20022;-76
2022/06/02 01:38:05;;;;;;;9.32;8.82;;;17.40;54.10;;;;;;5010817;28;20046;-76
2022/06/02 01:40:34;;;;;;;9.63;8.93;;;17.40;54.10;;;;;;5025778;28;20025;-76
2022/06/02 01:43:04;;;;;;;9.50;9.00;;;17.40;54.00;;;;;;5025261;28;20044;-76
2022/06/02 01:46:04;;;;;;;10.70;9.90;;;17.40;54.00;;;;;;5027062;28;20040;-76
2022/06/02 01:49:02;;;;;;;10.02;9.23;;;17.40;54.10;;;;;;5028626;28;20045;-76
2022/06/02 01:51:51;;;;;;;9.65;8.95;;;17.40;54.80;;;;;;5029386;28;20483;-76
2022/06/02 01:54:23;;;;;;;9.27;8.77;;;17.40;55.30;;;;;;5035225;28;20049;-75
2022/06/02 01:57:09;;;;;;;9.80;9.10;;;17.40;55.50;;;;;;5026727;28;20384;-76
2022/06/02 01:59:53;;;;;;;9.38;8.80;;;17.30;55.10;;;;;;5028228;28;20029;-75
2022/06/02 02:02:56;;;;;;;9.30;8.80;;;17.30;55.40;;;;;;5026163;28;20026;-76
2022/06/02 02:05:34;;;;;;;8.93;8.32;;;17.20;55.60;;;;;;5036214;28;20034;-76
2022/06/02 02:08:03;;;;;;;8.93;8.43;;;17.20;55.50;;;;;;5026891;28;20042;-76
2022/06/02 02:10:50;;;;;;;9.35;8.75;;;17.20;55.50;;;;;;5026973;28;20065;-76
2022/06/02 02:13:16;;;;;;;9.27;8.57;;;17.20;55.30;;;;;;5025520;28;20038;-76
2022/06/02 02:15:49;;;;;;;9.57;8.77;;;17.30;55.40;;;;;;5030000;28;20030;-76
2022/06/02 02:18:31;;;;;;;9.30;8.55;;;17.30;55.40;;;;;;5011766;28;20048;-76
2022/06/02 02:20:56;;;;;;;;;;;17.20;55.50;;;;;;5033406;28;20049;-75
2022/06/02 02:23:46;;;;;;;8.85;8.35;;;17.20;55.30;;;;;;5019629;28;20438;-75
2022/06/02 02:26:19;;;;;;;9.20;8.70;;;17.30;55.40;;;;;;5026929;28;20028;-76
2022/06/02 02:29:00;;;;;;;9.73;9.02;;;17.30;55.10;;;;;;5027712;28;20026;-75
2022/06/02 02:31:26;;;;;;;9.55;8.75;;;17.20;55.10;;;;;;5024437;28;20029;-74
2022/06/02 02:34:01;;;;;;;9.13;8.52;;;17.30;55.40;;;;;;5040828;28;20042;-74
2022/06/02 02:36:55;;;;;;;9.50;8.75;;;17.30;55.30;;;;;;5012388;28;20040;-77
2022/06/02 02:39:42;;;;;;;8.85;8.35;;;17.20;55.30;;;;;;5027526;28;20161;-74
2022/06/02 02:42:22;;;;;;;9.30;8.70;;;17.10;55.50;;;;;;5029808;28;20482;-77
2022/06/02 02:45:01;;;;;;;9.32;8.63;;;17.10;55.40;;;;;;5031200;28;20029;-74
2022/06/02 02:47:36;;;;;;;9.23;8.55;;;17.10;55.60;;;;;;5030440;28;20041;-74
2022/06/02 02:50:14;;;;;;;9.43;8.80;;;17.10;55.60;;;;;;5031210;28;20025;-77
2022/06/02 02:52:56;;;;;;;9.55;9.00;;;17.10;55.80;;;;;;5029688;28;20033;-74
2022/06/02 02:55:37;;;;;;;9.68;8.95;;;17.10;55.50;;;;;;5027659;28;20399;-74
2022/06/02 02:58:34;;;;;;;9.40;8.68;;;17.20;55.40;;;;;;5030638;28;20026;-76
2022/06/02 03:01:08;;;;;;;9.80;9.10;;;17.30;55.20;;;;;;5042588;28;20034;-76
2022/06/02 03:03:58;;;;;;;8.68;8.07;;;17.30;55.20;;;;;;5027840;28;20037;-76
2022/06/02 03:06:30;;;;;;;9.55;8.75;;;17.30;55.40;;;;;;5045243;28;20030;-77
2022/06/02 03:09:22;;;;;;;9.57;9.07;;;17.10;55.50;;;;;;5030744;28;20060;-76
2022/06/02 03:11:57;;;;;;;9.30;8.70;;;17.00;55.90;;;;;;5022273;28;20045;-76
2022/06/02 03:14:44;;;;;;;9.13;8.55;;;16.90;56.70;;;;;;5030788;28;20029;-77
2022/06/02 03:17:16;;;;;;;9.30;8.70;;;17.00;56.20;;;;;;5039383;28;20033;-76
2022/06/02 03:19:45;;;;;;;;;;;17.00;56.00;;;;;;5031092;28;20383;-74
2022/06/02 03:22:24;;;;;;;9.15;8.40;;;16.80;56.30;;;;;;5046621;28;19913;-76
2022/06/02 03:25:02;;;;;;;9.30;8.70;;;16.80;56.50;;;;;;5027595;28;20029;-76
2022/06/02 03:27:35;;;;;;;9.32;8.70;;;16.80;56.60;;;;;;5030449;28;20041;-76
2022/06/02 03:30:21;;;;;;;10.07;9.02;;;16.80;56.50;;;;;;5030709;28;20483;-76
2022/06/02 03:32:52;;;;;;;9.70;9.00;;;16.80;56.50;;;;;;5029705;28;20029;-76
2022/06/02 03:35:47;;;;;;;9.07;8.48;;;16.80;56.80;;;;;;5030754;28;20032;-77
2022/06/02 03:38:25;;;;;;;9.27;8.50;;;16.80;56.80;;;;;;5021403;28;20048;-76
2022/06/02 03:41:08;;;;;;;9.57;8.88;;;16.80;56.70;;;;;;5028851;28;20030;-76
2022/06/02 03:44:00;;;;;;;9.00;8.40;;;16.90;56.30;;;;;;5010752;28;20037;-76
2022/06/02 03:46:52;;;;;;;9.43;8.80;;;16.90;56.20;;;;;;5021856;28;20041;-77
2022/06/02 03:49:29;;;;;;;9.63;8.90;;;16.90;56.00;;;;;;5013256;28;20034;-76
2022/06/02 03:52:02;;;;;;;9.10;8.55;;;16.90;56.20;;;;;;5027184;28;20029;-76
2022/06/02 03:54:40;;;;;;;9.35;8.85;;;16.80;56.40;;;;;;5028790;28;20468;-76
2022/06/02 03:57:26;;;;;;;9.27;8.68;;;16.80;56.50;;;;;;5028535;28;20025;-76
2022/06/02 04:00:07;;;;;;;9.30;8.70;;;16.70;56.60;;;;;;5020738;28;20046;-75
2022/06/02 04:02:55;;;;;;;9.43;8.82;;;16.70;56.70;;;;;;5009432;28;20033;-76
2022/06/02 04:05:33;;;;;;;9.07;8.45;;;16.70;57.00;;;;;;5019581;28;20494;-76
2022/06/02 04:07:59;;;;;;;9.05;8.45;;;16.60;57.10;;;;;;5028277;28;20044;-76
2022/06/02 04:10:37;;;;;;;8.90;8.30;;;16.50;57.20;;;;;;5028197;28;20038;-76
2022/06/02 04:13:37;;;;;;;9.02;8.48;;;16.60;57.30;;;;;;5011080;28;20044;-76
2022/06/02 04:16:26;;;;;;;9.20;8.40;;;16.60;57.20;;;;;;5041897;28;20397;-76
2022/06/02 04:20:34;;;;;;;9.88;9.20;;;16.40;57.40;;;;;;5031203;28;20041;-76
2022/06/02 04:21:54;;;;;;;8.80;8.20;;;16.40;57.50;;;;;;5026898;28;20480;-76
2022/06/02 04:24:32;;;;;;;8.82;8.32;;;16.40;57.80;;;;;;5044571;28;20044;-76
2022/06/02 04:27:13;;;;;;;8.70;8.10;;;16.40;57.90;;;;;;5027992;28;20041;-76
2022/06/02 04:30:02;;;;;;;8.57;7.97;;;16.40;57.80;;;;;;5029512;28;20033;-76
2022/06/02 04:32:43;;;;;;;8.45;7.93;;;16.40;57.80;;;;;;5028109;28;20030;-76
2022/06/02 04:35:30;;;;;;;8.75;8.05;;;16.20;58.10;;;;;;5025572;28;20516;-76
2022/06/02 04:38:12;;;;;;;8.77;8.18;;;16.30;57.80;;;;;;5006739;28;20026;-76
2022/06/02 04:40:59;;;;;;;8.80;8.10;;;16.20;57.90;;;;;;5027841;28;20033;-75
2022/06/02 04:43:36;;;;;;;8.27;7.78;;;16.20;58.10;;;;;;5012964;28;20473;-76
2022/06/02 04:46:24;;;;;;;8.82;8.00;;;16.30;57.80;;;;;;5028314;28;20033;-76
2022/06/02 04:49:26;;;;;;;8.20;7.70;;;16.40;57.60;;;;;;5030786;28;20038;-76
2022/06/02 04:51:58;;;;;;;9.20;8.60;;;16.30;57.70;;;;;;4972759;28;20057;-76
2022/06/02 04:54:34;;;;;;;9.00;8.50;;;16.30;57.50;;;;;;4973275;28;20030;-76
2022/06/02 04:57:15;;;;;;;8.88;8.18;;;16.20;57.70;;;;;;4949161;28;20080;-76
2022/06/02 05:00:03;;;;;;;8.27;7.68;;;16.20;57.80;;;;;;4952850;28;20042;-76
2022/06/02 05:02:52;;;;;;;8.88;8.18;;;16.20;57.90;;;;;;4970790;28;20046;-76
2022/06/02 05:05:31;;;;;;;9.45;8.85;;;16.30;57.80;;;;;;4986347;28;20030;-76
2022/06/02 05:08:17;;;;;;;8.40;7.90;;;16.20;57.70;;;;;;4972158;28;20039;-76
2022/06/02 05:10:43;;;;;;;8.55;8.05;;;16.20;57.80;;;;;;4953602;28;20053;-76
2022/06/02 05:13:30;;;;;;;9.25;8.45;;;16.30;57.60;;;;;;4987030;28;20057;-76
2022/06/02 05:16:11;;;;;;;8.80;8.13;;;16.40;57.40;;;;;;4956624;28;20405;-76
2022/06/02 05:18:58;;;;;;;8.98;8.27;;;16.40;57.70;;;;;;4972089;28;20185;-76
2022/06/02 05:21:46;;;;;;;9.05;8.13;;;16.40;58.10;;;;;;4986086;28;20390;-76
2022/06/02 05:24:36;;;;;;;8.82;8.15;;;16.40;57.40;;;;;;4985319;28;20181;-76
2022/06/02 05:27:05;;;;;;;9.50;8.77;;;16.40;57.30;;;;;;4985455;28;20058;-76
2022/06/02 05:30:02;;;;;;;9.05;8.45;;;16.50;57.20;;;;;;5007094;28;20496;-76
2022/06/02 05:33:04;;;;;;;9.88;8.98;;;16.60;57.00;;;;;;5007800;28;20037;-76
2022/06/02 05:35:42;;;;;;;10.13;9.20;;;16.80;56.60;;;;;;5008775;28;20030;-76
2022/06/02 05:38:11;;;;;;;9.80;9.18;;;17.10;56.10;;;;;;5017985;28;20038;-76
2022/06/02 05:40:38;;;;;;;10.13;9.52;;;17.30;55.20;;;;;;5007237;28;20503;-76
2022/06/02 05:43:15;;;;;;;10.73;9.90;;;17.50;54.90;;;;;;4990611;28;20045;-76
2022/06/02 05:46:12;;;;;;;11.10;10.40;;;17.70;54.40;;;;;;5008525;28;20042;-76
2022/06/02 05:48:53;;;;;;;11.45;10.65;;;17.80;53.90;;;;;;5024558;28;20059;-76
2022/06/02 05:51:49;;;;;;;12.25;11.23;;;17.90;53.90;;;;;;5007969;28;20384;-76
2022/06/02 05:54:34;;;;;;;11.70;10.75;;;18.00;53.50;;;;;;5008131;28;20046;-75
2022/06/02 05:57:15;;;;;;;11.63;10.93;;;17.90;53.60;;;;;;5007101;28;20034;-75
2022/06/02 06:00:00;;;;;;;11.43;10.68;;;18.10;53.30;;;;;;5007033;28;20484;-76
2022/06/02 06:02:33;;;;;;;11.57;10.80;;;18.20;52.70;;;;;;5027579;28;20068;-76
2022/06/02 06:05:10;;;;;;;11.75;10.65;;;18.20;52.10;;;;;;5026274;28;20361;-76
2022/06/02 06:07:51;;;;;;;11.45;10.75;;;18.10;52.80;;;;;;5026701;28;20022;-76
2022/06/02 06:10:40;;;;;;;10.45;9.85;;;18.00;52.70;;;;;;5027023;28;20501;-76
2022/06/02 06:13:24;;;;;;;11.00;10.30;;;17.90;53.10;;;;;;5015731;28;20042;-76
2022/06/02 06:15:53;;;;;;;11.02;10.32;;;17.90;52.80;;;;;;5028262;28;20041;-76
2022/06/02 06:18:32;;;;;;;10.48;9.77;;;17.80;53.00;;;;;;5031212;28;20033;-76
2022/06/02 06:21:21;;;;;;;11.30;10.57;;;17.90;52.90;;;;;;5023085;28;20034;-76
2022/06/02 06:24:18;;;;;;;11.20;10.60;;;17.90;53.00;;;;;;5026190;28;20056;-76
2022/06/02 06:26:57;;;;;;;11.75;11.00;;;18.20;52.50;;;;;;5031876;28;20032;-76
2022/06/02 06:29:37;;;;;;;12.05;11.35;;;18.50;51.30;;;;;;5031600;28;20053;-76
2022/06/02 06:32:45;;;;;;;11.85;11.05;;;18.50;51.10;;;;;;5008066;28;20037;-76
2022/06/02 06:35:41;;;;;;;11.00;10.27;;;18.70;51.00;;;;;;5031638;28;20029;-76
2022/06/02 06:38:16;;;;;;;11.75;10.93;;;18.90;50.50;;;;;;5013341;28;20037;-76
2022/06/02 06:41:10;;;;;;;12.45;11.60;;;18.70;50.70;;;;;;5030302;28;20380;-76
2022/06/02 06:43:36;;;;;;;12.70;11.70;;;18.50;51.20;;;;;;5001009;28;20240;-76
2022/06/02 06:46:21;;;;;;;12.30;11.45;;;18.50;51.10;;;;;;5031746;28;20507;-76
2022/06/02 06:48:55;;;;;;;12.30;11.30;;;18.50;51.10;;;;;;5033498;28;20044;-76
2022/06/02 06:51:37;;;;;;;11.82;11.05;;;18.70;51.10;;;;;;5048746;28;20033;-76
2022/06/02 06:54:28;;;;;;;11.73;10.90;;;18.80;50.70;;;;;;5031297;28;20064;-76
2022/06/02 06:57:16;;;;;;;11.88;11.07;;;18.80;50.70;;;;;;5031400;28;20037;-76
2022/06/02 07:00:00;;;;;;;12.10;11.30;;;19.10;50.30;;;;;;5031120;28;20033;-76
2022/06/02 07:02:35;;;;;;;11.80;11.10;;;19.00;50.20;;;;;;5029148;28;20037;-76
2022/06/02 07:05:10;;;;;;;11.80;10.90;;;18.90;50.50;;;;;;5029545;28;20388;-76
2022/06/02 07:07:58;;;;;;;11.52;10.82;;;18.80;50.40;;;;;;5029933;28;20382;-76
2022/06/02 07:10:32;;;;;;;12.55;11.45;;;18.80;50.40;;;;;;5029192;28;20053;-76
2022/06/02 07:13:20;;;;;;;11.75;11.05;;;18.80;50.70;;;;;;5030723;28;20026;-76
2022/06/02 07:15:48;;;;;;;17.85;16.50;;;18.80;50.30;;;;;;5027147;28;20140;-76
2022/06/02 07:18:35;;;;;;;12.30;11.18;;;18.80;50.50;;;;;;5011617;28;20041;-75
2022/06/02 07:21:25;;;;;;;11.35;10.60;;;18.80;50.60;;;;;;4970423;28;20039;-75
2022/06/02 07:24:22;;;;;;;12.02;11.15;;;18.80;50.90;;;;;;4970978;28;20039;-75
2022/06/02 07:27:06;;;;;;;13.32;12.27;;;19.00;51.10;;;;;;4969526;28;20062;-75
2022/06/02 07:29:42;;;;;;;12.52;11.82;;;19.00;50.30;;;;;;4974452;28;20051;-75
2022/06/02 07:32:41;;;;;;;12.65;11.52;;;19.30;49.80;;;;;;4970393;28;20410;-75
2022/06/02 07:35:41;;;;;;;12.35;11.57;;;19.60;49.00;;;;;;4970716;28;20057;-75
2022/06/02 07:38:31;;;;;;;11.95;11.00;;;19.90;48.90;;;;;;4970408;28;20441;-75
2022/06/02 07:41:24;;;;;;;14.00;13.20;;;19.90;48.50;;;;;;4970425;28;20039;-75
2022/06/02 07:44:24;;;;;;;12.30;11.60;;;20.20;47.50;;;;;;4970716;28;20038;-75
2022/06/02 07:46:57;;;;;;;13.10;12.15;;;20.10;47.50;;;;;;4969985;28;20042;-75
2022/06/02 07:49:44;;;;;;;13.25;12.32;;;20.30;47.50;;;;;;4970534;28;20046;-75
2022/06/02 07:52:19;;;;;;;12.75;11.85;;;20.60;46.80;;;;;;4970356;28;20054;-75
2022/06/02 07:54:45;;;;;;;12.68;11.88;;;20.70;46.40;;;;;;4959831;28;20030;-75
2022/06/02 07:57:20;;;;;;;12.68;11.70;;;20.80;46.20;;;;;;4973621;28;20042;-75
2022/06/02 07:59:52;;;;;;;12.90;11.90;;;20.80;46.80;;;;;;5029885;28;20037;-76
2022/06/02 08:02:30;;;;;;;12.10;11.40;;;21.00;46.20;;;;;;5027923;28;20408;-76
2022/06/02 08:05:19;;;;;;;11.82;11.13;;;21.30;46.00;;;;;;5026386;28;20045;-75
2022/06/02 08:07:56;;;;;;;12.50;11.70;;;21.20;45.70;;;;;;5027691;28;20041;-76
2022/06/02 08:10:25;;;;;;;12.70;12.00;;;21.00;46.40;;;;;;5028337;28;20046;-76
2022/06/02 08:13:14;;;;;;;12.35;11.45;;;20.80;46.50;;;;;;5031455;28;20456;-76
2022/06/02 08:16:20;;;;;;;11.75;11.15;;;20.70;47.10;;;;;;5015204;28;20960;-75
2022/06/02 08:18:46;;;;;;;12.50;11.80;;;20.80;47.10;;;;;;4966467;28;20057;-75
2022/06/02 08:21:38;;;;;;;12.80;12.00;;;20.80;47.00;;;;;;4966691;28;20038;-76
2022/06/02 08:24:38;;;;;;;13.70;12.93;;;20.80;47.00;;;;;;4950098;29;20047;-75
2022/06/02 08:27:16;;;;;;;15.20;14.40;;;20.90;47.40;;;;;;4965499;28;20039;-75
2022/06/02 08:30:09;;;;;;;12.85;11.88;;;21.30;46.40;;;;;;4965887;28;20051;-76
2022/06/02 08:33:12;;;;;;;12.57;11.57;;;21.30;46.20;;;;;;4982088;28;20568;-75
2022/06/02 08:35:51;;;;;;;12.63;11.70;;;21.60;45.40;;;;;;4966843;28;20082;-76
2022/06/02 08:38:40;;;;;;;13.63;12.93;;;21.90;45.30;;;;;;4966266;28;20042;-76
2022/06/02 08:41:28;;;;;;;12.40;11.68;;;21.90;45.10;;;;;;4982831;28;20035;-77
2022/06/02 08:44:23;;;;;;;13.15;12.35;;;22.30;45.30;;;;;;4966726;28;20410;-76
2022/06/02 08:47:10;;;;;;;13.40;12.60;;;22.50;44.70;;;;;;4967700;28;20181;-75
2022/06/02 08:49:54;;;;;;;14.00;12.57;;;22.60;44.00;;;;;;4952608;28;20050;-76
2022/06/02 08:52:48;;;;;;;13.93;12.68;;;22.80;44.30;;;;;;4951494;28;20034;-75
2022/06/02 08:55:53;;;;;;;14.20;12.88;;;23.00;43.60;;;;;;4980752;28;20030;-76
2022/06/02 08:58:22;;;;;;;13.23;12.32;;;23.00;43.60;;;;;;5012183;28;20472;-76
2022/06/02 09:01:20;;;;;;;13.52;12.48;;;22.70;43.90;;;;;;5026926;28;20404;-75
2022/06/02 09:04:19;;;;;;;12.95;12.10;;;22.60;44.60;;;;;;5026949;28;20036;-76
2022/06/02 09:07:05;;;;;;;13.45;12.65;;;22.70;44.80;;;;;;5041081;28;20052;-76
2022/06/02 09:09:57;;;;;;;13.07;12.13;;;23.00;44.20;;;;;;5027254;28;20083;-76
2022/06/02 09:12:42;;;;;;;13.15;12.30;;;23.10;44.00;;;;;;5032898;28;20045;-75
2022/06/02 09:15:40;;;;;;;13.25;12.50;;;23.40;43.70;;;;;;5054168;28;20061;-75
2022/06/02 09:18:16;;;;;;;15.90;14.95;;;23.70;44.00;;;;;;5028709;28;20035;-76
2022/06/02 09:21:04;;;;;;;14.23;13.35;;;23.70;43.50;;;;;;5021885;28;20037;-75
2022/06/02 09:24:13;;;;;;;14.32;13.60;;;23.60;43.00;;;;;;5005685;28;20037;-75
2022/06/02 10:16:37;;;;;;;19.55;18.45;;;24.50;42.00;;;;;;5086732;27;20465;-81
2022/06/02 10:19:03;;;;;;;17.02;16.02;;;26.00;40.70;;;;;;5048666;28;20040;-81
2022/06/02 10:22:04;;;;;;;16.50;15.32;;;26.00;41.10;;;;;;5075224;28;20047;-81
2022/06/02 10:25:01;;;;;;;16.50;15.40;;;25.70;42.00;;;;;;5067536;28;20041;-81
2022/06/02 10:28:18;;;;;;;16.65;15.52;;;25.70;41.70;;;;;;5067265;28;20040;-82
2022/06/02 10:31:08;;;;;;;17.95;16.98;;;25.70;42.10;;;;;;5021044;28;20041;-81
2022/06/02 10:33:58;;;;;;;17.33;16.30;;;25.80;42.60;;;;;;5004875;28;20439;-81
2022/06/02 10:36:53;;;;;;;16.80;15.52;;;25.80;42.90;;;;;;5024968;28;20518;-82
2022/06/02 10:39:40;;;;;;;16.10;14.88;;;25.60;42.90;;;;;;5025141;28;20410;-81
2022/06/02 10:42:22;;;;;;;18.13;17.00;;;25.70;43.20;;;;;;5025003;28;20042;-81
2022/06/02 10:45:13;;;;;;;15.80;14.70;;;25.80;42.30;;;;;;5006935;28;20815;-81
2022/06/02 10:47:48;;;;;;;16.38;15.38;;;25.70;42.40;;;;;;5002623;28;20070;-82
2022/06/02 10:50:42;;;;;;;17.15;16.08;;;25.80;42.20;;;;;;4996576;28;20030;-81
2022/06/02 10:53:45;;;;;;;16.25;15.35;;;26.10;42.20;;;;;;4973829;28;20477;-81
2022/06/02 10:56:22;;;;;;;18.45;17.17;;;26.10;42.30;;;;;;4980529;28;20038;-81
2022/06/02 10:59:03;;;;;;;17.70;16.58;;;26.10;41.80;;;;;;4980634;28;20140;-82
2022/06/02 11:01:41;;;;;;;;;;;26.10;41.80;;;;;;4981779;28;20029;-81
2022/06/02 11:04:53;;;;;;;17.65;16.65;;;26.20;42.10;;;;;;4984298;28;19913;-82
2022/06/02 11:07:43;;;;;;;16.55;15.63;;;26.20;42.30;;;;;;5018184;28;20025;-82
2022/06/02 11:10:21;;;;;;;17.30;16.10;;;26.20;42.00;;;;;;5008449;28;20986;-81
2022/06/02 11:13:00;;;;;;;16.23;15.32;;;26.20;42.00;;;;;;5022151;28;20281;-82
2022/06/02 11:15:47;;;;;;;18.13;16.58;;;26.30;42.40;;;;;;4987411;28;20054;-81
2022/06/02 11:18:42;;;;;;;17.45;16.45;;;26.50;41.90;;;;;;4997848;28;20042;-82
2022/06/02 11:21:26;;;;;;;18.23;16.92;;;26.60;42.00;;;;;;5006672;28;20034;-82
2022/06/02 11:24:24;;;;;;;19.05;17.88;;;26.90;41.60;;;;;;4984324;28;20042;-82
2022/06/02 11:27:04;;;;;;;18.30;17.30;;;26.70;40.70;;;;;;4999538;28;20030;-81
2022/06/02 11:29:58;;;;;;;17.83;16.88;;;26.60;41.50;;;;;;5005614;28;20045;-81
2022/06/02 11:32:59;;;;;;;18.10;17.10;;;26.60;42.00;;;;;;5023365;28;20037;-82
2022/06/02 11:35:56;;;;;;;17.15;16.15;;;26.80;41.30;;;;;;5028335;28;20037;-81
2022/06/02 11:38:31;;;;;;;19.38;18.35;;;26.90;41.30;;;;;;5028530;28;20033;-81
2022/06/02 11:41:25;;;;;;;17.85;16.90;;;27.00;41.10;;;;;;5029609;28;20415;-81
2022/06/02 11:44:08;;;;;;;17.85;16.80;;;26.90;40.50;;;;;;5031224;28;20036;-81
2022/06/02 11:47:02;;;;;;;18.50;17.23;;;26.90;40.60;;;;;;5027951;28;20029;-81
2022/06/02 11:49:42;;;;;;;18.92;17.83;;;27.10;41.10;;;;;;5016728;28;20547;-81
2022/06/02 11:52:26;;;;;;;18.95;17.75;;;27.20;41.00;;;;;;4996561;28;20064;-81
2022/06/02 11:55:20;;;;;;;17.73;16.63;;;27.30;40.60;;;;;;5031271;28;20049;-81
2022/06/02 11:58:13;;;;;;;17.95;16.67;;;27.40;40.10;;;;;;5029703;28;20414;-82
2022/06/02 12:01:21;;;;;;;18.75;17.70;;;27.60;40.50;;;;;;5030347;28;20034;-82
2022/06/02 12:04:06;;;;;;;18.50;17.40;;;27.30;40.60;;;;;;5028076;28;20033;-82
2022/06/02 12:06:54;;;;;;;18.77;17.73;;;27.40;40.70;;;;;;5027672;28;20383;-81
2022/06/02 12:09:30;;;;;;;19.27;18.17;;;27.70;40.20;;;;;;5031393;28;20045;-82
2022/06/02 12:12:02;;;;;;;20.65;19.25;;;27.80;40.00;;;;;;5029034;28;20053;-81
2022/06/02 12:14:31;;;;;;;20.65;19.58;;;27.90;39.60;;;;;;5030867;28;20407;-81
2022/06/02 12:17:05;;;;;;;19.35;18.35;;;27.70;40.30;;;;;;5028320;28;20033;-82
2022/06/02 12:19:49;;;;;;;20.73;19.67;;;27.80;40.10;;;;;;5011749;28;20036;-81
2022/06/02 12:22:39;;;;;;;18.77;17.65;;;27.70;39.20;;;;;;5024754;28;20030;-82
2022/06/02 12:25:11;;;;;;;19.20;17.95;;;27.60;40.50;;;;;;5013367;28;20130;-82
2022/06/02 12:27:57;;;;;;;19.30;18.20;;;27.70;40.20;;;;;;5030780;28;20029;-82
2022/06/02 12:31:07;;;;;;;19.27;18.13;;;27.80;39.60;;;;;;5029672;28;20380;-81
2022/06/02 12:33:57;;;;;;;18.77;17.75;;;27.70;40.00;;;;;;4967402;28;20051;-82
2022/06/02 12:36:53;;;;;;;18.38;17.38;;;27.80;39.70;;;;;;4969861;28;20090;-81
2022/06/02 12:39:21;;;;;;;19.67;18.50;;;27.70;40.10;;;;;;4951392;28;20042;-82
2022/06/02 12:42:24;;;;;;;20.25;19.05;;;28.00;39.90;;;;;;4971436;28;20050;-82
2022/06/02 12:45:09;;;;;;;23.10;21.80;;;28.10;39.50;;;;;;4971386;28;20038;-79
2022/06/02 12:47:50;;;;;;;25.10;23.35;;;28.10;39.10;;;;;;4973450;28;20037;-80
2022/06/02 12:50:36;;;;;;;30.98;29.23;;;28.30;39.10;;;;;;4990766;28;20046;-79
2022/06/02 12:53:17;;;;;;;22.35;20.85;;;28.40;39.60;;;;;;4974685;28;20509;-79
2022/06/02 12:56:04;;;;;;;20.25;19.13;;;28.40;39.40;;;;;;4971768;28;20059;-79
2022/06/02 12:59:06;;;;;;;20.02;18.70;;;28.20;39.40;;;;;;4976504;28;20030;-80
2022/06/02 13:01:50;;;;;;;19.73;18.73;;;28.00;39.90;;;;;;4978163;28;20034;-80
2022/06/02 13:04:25;;;;;;;20.08;18.95;;;28.30;39.40;;;;;;4974548;28;20052;-79
2022/06/02 13:06:51;;;;;;;21.15;20.05;;;28.30;39.60;;;;;;4990197;28;20030;-80
2022/06/02 13:09:23;;;;;;;20.08;19.13;;;28.40;38.60;;;;;;5011078;28;20030;-80
2022/06/02 13:12:14;;;;;;;20.88;19.80;;;28.20;38.70;;;;;;5046201;28;20375;-82
2022/06/02 13:14:59;;;;;;;;;;;28.10;38.90;;;;;;5044509;28;20048;-82
2022/06/02 13:17:57;;;;;;;20.25;18.73;;;28.30;39.90;;;;;;5047229;28;19916;-82
2022/06/02 13:20:44;;;;;;;19.60;18.35;;;28.60;38.60;;;;;;4985777;28;20404;-81
2022/06/02 13:23:43;;;;;;;20.02;18.83;;;28.40;38.50;;;;;;4958262;28;20053;-81
2022/06/02 13:26:26;;;;;;;19.35;18.23;;;28.00;39.70;;;;;;4969718;28;20041;-81
2022/06/02 13:29:04;;;;;;;19.67;18.58;;;28.10;39.70;;;;;;4985476;28;20045;-79
2022/06/02 13:31:45;;;;;;;20.23;19.00;;;28.10;39.00;;;;;;4985446;28;20065;-79
2022/06/02 13:34:35;;;;;;;20.58;19.48;;;28.20;39.30;;;;;;4956768;28;20042;-80
2022/06/02 13:37:58;;;;;;;22.58;21.27;;;28.40;39.60;;;;;;4986343;28;20035;-80
2022/06/02 13:40:33;;;;;;;20.13;19.02;;;28.50;38.10;;;;;;4933150;29;20516;-81
2022/06/02 13:43:15;;;;;;;21.98;20.77;;;28.50;38.30;;;;;;4931261;29;20040;-80
2022/06/02 13:45:57;;;;;;;20.55;19.25;;;28.40;39.00;;;;;;4929577;29;20031;-79
2022/06/02 13:48:40;;;;;;;21.02;19.83;;;28.40;38.70;;;;;;4919854;29;20028;-79
2022/06/02 13:51:43;;;;;;;19.08;18.00;;;28.30;39.10;;;;;;4935330;29;20058;-79
2022/06/02 13:57:41;;;;;;;24.05;22.75;;;28.30;39.70;;;;;;4964310;28;20057;-80
2022/06/02 14:00:18;;;;;;;19.88;18.77;;;28.40;39.30;;;;;;5011286;28;20121;-79
2022/06/02 14:03:23;;;;;;;20.40;19.00;;;28.40;39.30;;;;;;4995861;28;20034;-79
2022/06/02 14:06:05;;;;;;;20.58;19.48;;;28.50;39.30;;;;;;4998295;28;20129;-80
2022/06/02 14:08:40;;;;;;;21.35;20.33;;;28.60;38.50;;;;;;4996560;28;20491;-80
2022/06/02 14:11:38;;;;;;;21.45;20.17;;;28.40;38.40;;;;;;5025293;28;20049;-80
2022/06/02 14:14:07;;;;;;;23.70;22.10;;;28.50;38.70;;;;;;5043099;28;20389;-80
2022/06/02 14:16:43;;;;;;;21.17;20.02;;;28.60;39.00;;;;;;5046370;28;20033;-80
2022/06/02 14:19:37;;;;;;;20.63;19.58;;;28.60;38.70;;;;;;5014953;28;20017;-80
2022/06/02 14:22:12;;;;;;;20.65;19.55;;;28.60;38.60;;;;;;5047185;28;20033;-80
2022/06/02 14:24:53;;;;;;;20.23;19.13;;;28.60;39.00;;;;;;5046416;28;20051;-80
2022/06/02 14:27:22;;;;;;;25.40;23.90;;;28.70;38.70;;;;;;5048504;28;20462;-79
2022/06/02 14:30:11;;;;;;;20.85;19.73;;;28.50;38.30;;;;;;5046262;28;20037;-79
2022/06/02 14:33:02;;;;;;;22.70;21.50;;;28.40;38.50;;;;;;5045427;28;20041;-79
2022/06/02 14:35:31;;;;;;;20.27;19.17;;;28.50;38.10;;;;;;5046433;28;20391;-80
2022/06/02 14:38:20;;;;;;;23.10;21.80;;;28.40;38.30;;;;;;5046666;28;20041;-80
2022/06/02 14:40:51;;;;;;;22.27;21.10;;;28.60;38.10;;;;;;4968539;28;20049;-80
2022/06/02 14:43:24;;;;;;;24.25;22.90;;;29.00;38.20;;;;;;4967013;28;20054;-80
2022/06/02 14:45:56;;;;;;;19.90;18.85;;;29.30;38.10;;;;;;4985814;28;20038;-80
2022/06/02 14:48:46;;;;;;;23.50;22.02;;;29.20;37.70;;;;;;4987294;28;20485;-80
2022/06/02 14:51:16;;;;;;;22.23;21.13;;;29.10;38.20;;;;;;4990217;28;20049;-80
2022/06/02 14:54:00;;;;;;;20.63;19.53;;;29.10;37.50;;;;;;4988175;28;20041;-79
2022/06/02 14:56:37;;;;;;;20.10;18.85;;;29.20;37.50;;;;;;4974324;28;20535;-79